Time;durP1;ratioP1;P1;durP2;ratioP2;P2;SDS_P1;SDS_P2;PMS_P1;PMS_P2;Temp;Humidity;BMP_temperature;BMP_pressure;BME280_temperature;BME280_humidity;BME280_pressure;Samples;Min_cycle;Max_cycle;Signal;HPM_P1;HPM_P2
2021/07/17 00:01:42;;;;;;;3.78;1.88;;;;;;;21.83;55.40;102468.38;5048345;28;20140;-41
2021/07/17 00:04:09;;;;;;;4.88;2.08;;;;;;;21.82;55.62;102463.91;5047446;28;20053;-42
2021/07/17 00:06:49;;;;;;;3.97;1.95;;;;;;;21.79;55.70;102465.50;5052601;28;20056;-42
2021/07/17 00:09:16;;;;;;;4.30;1.70;;;;;;;21.76;56.03;102473.91;5044276;28;20183;-50
2021/07/17 00:11:44;;;;;;;7.50;2.05;;;;;;;21.74;56.09;102477.09;5046835;28;20051;-42
2021/07/17 00:14:11;;;;;;;3.75;1.67;;;;;;;21.74;56.22;102477.09;5013335;28;20054;-45
2021/07/17 00:16:37;;;;;;;2.38;1.30;;;;;;;21.71;56.45;102472.22;5015660;28;21845;-48
2021/07/17 00:19:04;;;;;;;2.38;1.33;;;;;;;21.71;56.41;102465.78;5015062;28;20053;-43
2021/07/17 00:21:31;;;;;;;2.75;2.15;;;;;;;21.68;56.32;102456.06;5015340;28;20544;-43
2021/07/17 00:24:00;;;;;;;4.78;2.55;;;;;;;21.66;56.41;102466.09;5014706;28;20052;-47
2021/07/17 00:26:30;;;;;;;4.07;1.73;;;;;;;21.59;56.71;102466.00;5015543;28;20038;-42
2021/07/17 00:28:57;;;;;;;3.35;1.90;;;;;;;21.57;56.65;102476.84;5014755;28;20570;-43
2021/07/17 00:31:23;;;;;;;3.10;1.65;;;;;;;21.55;57.26;102476.41;5016095;28;20407;-42
2021/07/17 00:33:51;;;;;;;3.45;2.00;;;;;;;21.54;57.23;102471.94;5014784;28;20067;-45
2021/07/17 00:36:21;;;;;;;3.78;1.88;;;;;;;21.52;57.48;102477.16;5014467;28;20052;-43
2021/07/17 00:38:47;;;;;;;2.53;1.50;;;;;;;21.51;57.18;102472.69;5014577;28;20052;-47
2021/07/17 00:41:14;;;;;;;2.47;1.38;;;;;;;21.46;57.67;102471.03;5016212;28;20053;-50
2021/07/17 00:43:42;;;;;;;4.97;1.40;;;;;;;21.43;57.63;102477.41;5013907;28;20613;-50
2021/07/17 00:46:09;;;;;;;4.55;1.60;;;;;;;21.40;57.83;102477.34;5016681;28;20131;-49
2021/07/17 00:48:37;;;;;;;2.78;1.52;;;;;;;21.38;57.90;102471.28;5015076;28;20057;-47
2021/07/17 00:51:04;;;;;;;9.98;2.85;;;;;;;21.37;57.78;102473.28;5016544;28;20597;-46
2021/07/17 00:53:31;;;;;;;4.28;2.13;;;;;;;21.36;58.05;102476.50;5014840;28;20123;-42
2021/07/17 00:55:58;;;;;;;3.78;1.38;;;;;;;21.34;57.91;102473.25;5017550;28;20044;-44
2021/07/17 00:58:32;;;;;;;2.72;1.40;;;;;;;21.29;58.04;102468.72;5005520;28;20410;-42
2021/07/17 01:01:02;;;;;;;2.95;1.30;;;;;;;21.28;58.20;102469.09;5014378;28;20191;-45
2021/07/17 01:03:30;;;;;;;3.17;1.27;;;;;;;21.22;58.38;102472.25;5015291;28;20784;-45
2021/07/17 01:05:57;;;;;;;3.65;1.42;;;;;;;21.19;58.12;102473.00;5017595;28;20041;-43
2021/07/17 01:08:26;;;;;;;2.58;1.02;;;;;;;21.18;58.59;102474.16;5016368;28;20403;-43
2021/07/17 01:10:53;;;;;;;2.92;1.25;;;;;;;21.17;58.31;102468.91;5013909;28;20057;-43
2021/07/17 01:13:20;;;;;;;3.72;1.30;;;;;;;21.15;58.39;102474.91;5036575;28;20133;-47
2021/07/17 01:15:47;;;;;;;1.52;1.08;;;;;;;21.09;58.57;102473.63;5052112;28;20129;-43
2021/07/17 01:18:14;;;;;;;2.45;1.10;;;;;;;21.07;58.92;102469.56;5045739;28;20507;-50
2021/07/17 01:20:41;;;;;;;4.63;1.77;;;;;;;21.03;58.59;102480.72;5043909;28;20053;-43
2021/07/17 01:23:11;;;;;;;5.00;1.50;;;;;;;21.03;58.83;102480.72;5045542;28;20101;-42
2021/07/17 01:25:39;;;;;;;3.10;1.90;;;;;;;21.00;59.01;102478.63;5043974;28;20140;-45
2021/07/17 01:28:05;;;;;;;3.75;1.42;;;;;;;20.97;58.88;102479.38;5032032;28;20044;-44
2021/07/17 01:30:40;;;;;;;5.05;1.80;;;;;;;20.93;58.92;102481.34;5037397;28;20052;-49
2021/07/17 01:33:08;;;;;;;4.03;2.08;;;;;;;20.90;59.30;102476.44;5050609;28;20053;-47
2021/07/17 01:35:35;;;;;;;5.70;2.20;;;;;;;20.89;59.16;102480.44;5046867;28;20060;-51
2021/07/17 01:38:05;;;;;;;4.63;2.40;;;;;;;20.86;59.32;102469.94;5049522;28;20056;-46
2021/07/17 01:40:32;;;;;;;5.32;3.10;;;;;;;20.83;59.46;102470.69;5048489;28;20048;-47
2021/07/17 01:42:59;;;;;;;6.75;2.55;;;;;;;20.78;59.47;102478.63;5051923;28;20083;-43
2021/07/17 01:45:36;;;;;;;4.40;2.85;;;;;;;20.77;59.76;102474.19;5048617;28;20047;-43
2021/07/17 01:48:04;;;;;;;5.38;3.00;;;;;;;20.75;59.95;102474.56;5052030;28;20141;-52
2021/07/17 01:50:32;;;;;;;4.70;2.60;;;;;;;20.72;59.92;102468.84;5046578;28;20056;-43
2021/07/17 01:52:59;;;;;;;6.65;2.92;;;;;;;20.70;60.02;102468.41;5049211;28;20057;-51
2021/07/17 01:55:28;;;;;;;6.15;3.00;;;;;;;20.67;60.17;102478.44;5045489;28;20076;-44
2021/07/17 01:57:55;;;;;;;6.78;2.80;;;;;;;20.63;60.01;102472.72;5029526;28;20044;-49
2021/07/17 02:00:22;;;;;;;8.20;3.22;;;;;;;20.61;60.30;102469.47;5048688;28;20075;-42
2021/07/17 02:02:49;;;;;;;10.13;3.95;;;;;;;20.58;60.57;102480.63;5049609;28;20041;-42
2021/07/17 02:05:17;;;;;;;5.15;3.30;;;;;;;20.55;60.48;102470.13;5051719;28;20072;-46
2021/07/17 02:07:45;;;;;;;7.95;3.55;;;;;;;20.53;60.85;102475.31;5047131;28;20147;-42
2021/07/17 02:10:18;;;;;;;5.00;2.60;;;;;;;20.44;61.29;102469.09;5047419;28;20123;-47
2021/07/17 02:13:04;;;;;;;4.97;2.78;;;;;;;20.51;60.94;102469.25;5047818;28;20131;-44
2021/07/17 02:15:35;;;;;;;4.60;3.25;;;;;;;20.46;60.88;102478.00;5047852;28;20082;-42
2021/07/17 02:18:02;;;;;;;5.30;2.50;;;;;;;20.40;60.93;102473.84;5049147;28;20375;-42
2021/07/17 02:20:29;;;;;;;18.45;5.45;;;;;;;20.38;61.11;102473.41;5047644;28;20044;-46
2021/07/17 02:22:56;;;;;;;4.32;2.95;;;;;;;20.40;61.12;102479.47;5049929;28;20406;-42
2021/07/17 02:25:23;;;;;;;4.97;2.60;;;;;;;20.39;61.14;102466.56;5045167;28;20979;-46
2021/07/17 02:27:49;;;;;;;6.78;3.13;;;;;;;20.33;61.49;102473.72;5049665;28;20385;-42
2021/07/17 02:30:16;;;;;;;5.43;2.40;;;;;;;20.33;61.68;102473.72;5045101;28;20048;-47
2021/07/17 02:32:43;;;;;;;4.93;2.65;;;;;;;20.29;61.54;102461.56;5049619;28;20045;-43
2021/07/17 02:35:13;;;;;;;8.75;2.92;;;;;;;20.27;61.84;102466.75;5047864;28;20114;-45
2021/07/17 02:37:39;;;;;;;3.42;2.65;;;;;;;20.25;61.74;102471.94;5044589;28;20036;-43
2021/07/17 02:40:09;;;;;;;4.28;3.03;;;;;;;20.32;61.48;102458.00;5045645;28;20088;-42
2021/07/17 02:42:36;;;;;;;4.95;2.97;;;;;;;20.23;61.77;102463.00;5052035;28;20505;-41
2021/07/17 02:45:06;;;;;;;4.63;2.60;;;;;;;20.19;62.15;102467.75;5049859;28;20611;-43
2021/07/17 02:47:36;;;;;;;4.43;2.85;;;;;;;20.15;62.40;102464.03;5043265;28;20061;-51
2021/07/17 02:50:05;;;;;;;5.47;2.63;;;;;;;20.11;62.17;102463.97;5047319;28;20061;-50
2021/07/17 02:52:32;;;;;;;11.18;2.80;;;;;;;20.12;62.25;102464.78;5051939;28;20067;-51
2021/07/17 02:54:59;;;;;;;7.40;2.90;;;;;;;20.12;62.17;102462.75;5050793;28;20052;-42
2021/07/17 02:57:28;;;;;;;6.80;2.90;;;;;;;20.10;62.23;102458.69;5043854;28;20897;-50
2021/07/17 02:59:55;;;;;;;5.45;2.45;;;;;;;20.06;62.27;102453.00;5044211;28;20518;-45
2021/07/17 03:02:22;;;;;;;6.45;3.35;;;;;;;20.06;62.75;102458.63;5047940;28;20482;-42
2021/07/17 03:04:49;;;;;;;7.45;2.60;;;;;;;20.05;62.34;102457.81;5053755;28;20375;-43
2021/07/17 03:07:16;;;;;;;5.15;2.50;;;;;;;20.11;62.15;102454.69;5045096;28;20051;-47
2021/07/17 03:09:43;;;;;;;5.53;3.17;;;;;;;20.05;62.65;102454.19;5030720;28;20504;-42
2021/07/17 03:12:10;;;;;;;6.32;3.92;;;;;;;20.01;62.67;102456.13;5043787;28;20056;-47
2021/07/17 03:14:37;;;;;;;5.35;2.85;;;;;;;19.96;62.77;102451.56;5045999;28;20060;-45
2021/07/17 03:17:04;;;;;;;7.20;3.00;;;;;;;19.93;63.05;102454.31;5049895;28;20056;-50
2021/07/17 03:19:34;;;;;;;7.88;3.38;;;;;;;19.91;63.16;102456.66;5050020;28;20767;-47
2021/07/17 03:22:03;;;;;;;8.07;3.45;;;;;;;19.98;62.58;102452.03;5031750;28;20041;-42
2021/07/17 03:24:31;;;;;;;5.10;2.53;;;;;;;19.93;63.16;102449.53;5030019;28;20048;-50
2021/07/17 03:26:58;;;;;;;7.55;3.13;;;;;;;19.89;63.21;102445.81;5023637;28;20157;-52
2021/07/17 03:29:25;;;;;;;5.28;2.83;;;;;;;19.85;63.77;102444.91;5043425;28;20049;-42
2021/07/17 03:31:52;;;;;;;6.13;3.08;;;;;;;19.84;63.87;102445.28;5046836;28;20067;-52
2021/07/17 03:34:19;;;;;;;4.38;2.78;;;;;;;19.87;63.78;102451.00;5044055;28;20057;-46
2021/07/17 03:36:46;;;;;;;10.43;3.38;;;;;;;19.90;63.40;102444.63;5043819;28;20849;-42
2021/07/17 03:39:13;;;;;;;4.13;2.78;;;;;;;19.84;63.77;102454.53;5046452;28;20183;-49
2021/07/17 03:41:40;;;;;;;5.90;3.33;;;;;;;19.79;63.76;102452.00;5039021;28;20045;-43
2021/07/17 03:44:07;;;;;;;5.88;2.78;;;;;;;19.77;63.82;102451.56;5042997;28;20052;-43
2021/07/17 03:46:34;;;;;;;8.27;2.92;;;;;;;19.73;64.16;102449.81;5044443;28;20057;-47
2021/07/17 03:49:03;;;;;;;3.88;2.90;;;;;;;19.70;64.31;102451.38;5048324;28;20033;-43
2021/07/17 03:51:30;;;;;;;5.05;3.28;;;;;;;19.69;64.50;102449.78;5050147;28;20053;-41
2021/07/17 03:53:57;;;;;;;6.60;3.67;;;;;;;19.64;64.46;102449.22;5048096;28;20151;-45
2021/07/17 03:56:24;;;;;;;3.72;2.65;;;;;;;19.61;64.64;102450.78;5049355;28;20106;-42
2021/07/17 03:58:50;;;;;;;4.05;2.90;;;;;;;19.58;64.71;102447.88;5046894;28;20402;-42
2021/07/17 04:01:17;;;;;;;7.63;3.13;;;;;;;19.57;64.79;102452.69;5044241;28;20502;-51
2021/07/17 04:03:50;;;;;;;6.85;2.72;;;;;;;19.52;65.04;102449.31;5045395;28;21139;-47
2021/07/17 04:06:18;;;;;;;3.95;2.85;;;;;;;19.48;65.28;102449.25;5044328;28;20564;-44
2021/07/17 04:08:44;;;;;;;7.88;3.60;;;;;;;19.45;65.31;102455.59;5045791;28;20137;-44
2021/07/17 04:11:11;;;;;;;7.53;4.35;;;;;;;19.42;65.64;102450.72;5040442;28;20148;-42
2021/07/17 04:13:38;;;;;;;5.38;2.90;;;;;;;19.37;65.69;102446.19;5043614;28;20152;-45
2021/07/17 04:16:05;;;;;;;4.70;2.83;;;;;;;19.41;65.66;102443.47;5049925;28;20055;-42
2021/07/17 04:18:35;;;;;;;6.70;3.17;;;;;;;19.40;65.62;102451.09;5044567;28;20058;-48
2021/07/17 04:21:02;;;;;;;4.18;2.95;;;;;;;19.34;65.79;102449.69;5045503;28;20068;-41
2021/07/17 04:23:28;;;;;;;5.75;2.70;;;;;;;19.29;65.97;102447.16;5046557;28;20044;-45
2021/07/17 04:25:56;;;;;;;4.40;2.70;;;;;;;19.28;65.84;102447.50;5044948;28;20150;-42
2021/07/17 04:28:23;;;;;;;4.82;2.80;;;;;;;19.26;66.07;102441.44;5047632;28;20401;-46
2021/07/17 04:30:50;;;;;;;4.13;2.40;;;;;;;19.27;66.07;102443.88;5043956;28;20128;-42
2021/07/17 04:33:17;;;;;;;7.18;2.97;;;;;;;19.25;66.13;102442.63;5044267;28;20052;-42
2021/07/17 04:35:43;;;;;;;4.25;2.60;;;;;;;19.25;66.04;102440.63;5048276;28;20050;-42
2021/07/17 04:38:10;;;;;;;4.53;2.95;;;;;;;19.25;66.20;102445.44;5051950;28;20064;-42
2021/07/17 04:40:37;;;;;;;3.03;2.28;;;;;;;19.23;66.39;102443.00;5042910;28;20072;-44
2021/07/17 04:43:04;;;;;;;7.72;3.03;;;;;;;19.23;66.20;102453.41;5045568;28;20080;-44
2021/07/17 04:45:31;;;;;;;7.22;3.53;;;;;;;19.21;66.52;102458.56;5048346;28;20128;-50
2021/07/17 04:47:58;;;;;;;6.45;3.33;;;;;;;19.20;66.40;102451.31;5048832;28;20048;-46
2021/07/17 04:50:24;;;;;;;6.75;3.47;;;;;;;19.21;66.32;102455.78;5048381;28;20048;-54
2021/07/17 04:52:51;;;;;;;4.97;2.25;;;;;;;19.25;66.01;102439.81;5053464;28;20044;-47
2021/07/17 04:55:18;;;;;;;4.85;3.10;;;;;;;19.27;66.12;102443.88;5045039;28;20167;-45
2021/07/17 04:57:45;;;;;;;4.28;2.88;;;;;;;19.26;66.12;102447.06;5049804;28;20154;-44
2021/07/17 05:00:13;;;;;;;5.32;3.10;;;;;;;19.25;66.33;102439.81;5050215;28;20064;-49
2021/07/17 05:02:51;;;;;;;6.63;3.60;;;;;;;19.23;66.72;102445.81;5046751;28;20055;-45
2021/07/17 05:05:20;;;;;;;7.13;3.67;;;;;;;19.25;66.51;102453.84;5052855;28;20041;-43
2021/07/17 05:07:48;;;;;;;7.63;4.47;;;;;;;19.25;66.59;102448.22;5053843;28;20048;-51
2021/07/17 05:10:17;;;;;;;4.28;3.00;;;;;;;19.27;66.29;102451.53;5048016;28;20063;-42
2021/07/17 05:12:44;;;;;;;4.13;3.17;;;;;;;19.29;66.37;102454.78;5048101;28;20063;-42
2021/07/17 05:15:14;;;;;;;10.00;3.58;;;;;;;19.32;66.53;102456.84;5050265;28;20689;-45
2021/07/17 05:17:41;;;;;;;5.80;3.13;;;;;;;19.35;66.32;102458.94;5028618;28;20056;-50
2021/07/17 05:20:08;;;;;;;5.15;3.30;;;;;;;19.36;66.43;102454.94;5034406;28;21400;-42
2021/07/17 05:22:35;;;;;;;8.05;3.63;;;;;;;19.39;66.33;102463.50;5049782;28;20470;-44
2021/07/17 05:25:03;;;;;;;6.53;3.08;;;;;;;19.40;66.39;102465.13;5048140;28;20033;-48
2021/07/17 05:27:30;;;;;;;6.60;2.25;;;;;;;19.43;66.30;102457.97;5049638;28;20045;-42
2021/07/17 05:30:04;;;;;;;5.97;2.85;;;;;;;19.50;66.48;102458.13;5050588;28;20086;-46
2021/07/17 05:32:31;;;;;;;4.53;2.53;;;;;;;19.50;66.58;102451.69;5044492;28;20525;-43
2021/07/17 05:34:57;;;;;;;5.40;3.15;;;;;;;19.52;66.35;102464.19;5051877;28;20085;-44
2021/07/17 05:37:25;;;;;;;5.30;3.22;;;;;;;19.56;66.63;102467.09;5031791;28;21051;-43
2021/07/17 05:39:52;;;;;;;10.15;3.83;;;;;;;19.56;66.58;102467.91;5050401;28;20058;-48
2021/07/17 05:42:19;;;;;;;6.65;4.50;;;;;;;19.58;66.67;102465.56;5048081;28;20541;-41
2021/07/17 05:44:46;;;;;;;6.00;3.10;;;;;;;19.62;66.77;102466.44;5047072;28;20175;-43
2021/07/17 05:47:13;;;;;;;6.32;3.25;;;;;;;19.66;66.86;102470.16;5048650;28;20660;-43
2021/07/17 05:49:40;;;;;;;4.63;2.60;;;;;;;19.68;66.59;102465.00;5049101;28;20477;-44
2021/07/17 05:52:07;;;;;;;5.93;3.08;;;;;;;19.69;66.68;102469.44;5049366;28;20052;-44
2021/07/17 05:54:35;;;;;;;5.03;2.42;;;;;;;19.72;66.95;102465.91;5048208;28;20561;-43
2021/07/17 05:57:02;;;;;;;7.20;3.00;;;;;;;19.77;66.91;102464.78;5049208;28;21173;-51
2021/07/17 05:59:29;;;;;;;4.90;2.78;;;;;;;19.81;66.94;102465.69;5050456;28;20410;-42
2021/07/17 06:01:55;;;;;;;6.35;2.83;;;;;;;19.90;66.59;102466.31;5044259;28;20083;-42
2021/07/17 06:04:23;;;;;;;4.65;2.50;;;;;;;19.93;66.59;102460.78;5048781;28;20056;-49
2021/07/17 06:06:50;;;;;;;9.20;2.92;;;;;;;20.01;66.52;102462.53;5051984;28;20079;-42
2021/07/17 06:09:17;;;;;;;3.17;2.65;;;;;;;20.08;66.13;102464.69;5047333;28;20049;-43
2021/07/17 06:11:43;;;;;;;6.03;3.05;;;;;;;20.17;66.07;102467.28;5041793;28;20060;-49
2021/07/17 06:14:10;;;;;;;7.60;3.22;;;;;;;20.23;66.15;102475.06;5046453;28;20585;-43
2021/07/17 06:16:37;;;;;;;6.10;3.00;;;;;;;20.29;65.80;102475.63;5049822;28;20052;-41
2021/07/17 06:19:04;;;;;;;7.30;3.13;;;;;;;20.35;65.68;102482.59;5046160;28;20110;-49
2021/07/17 06:21:32;;;;;;;4.38;2.85;;;;;;;20.37;66.03;102480.22;5032046;28;20437;-49
2021/07/17 06:23:59;;;;;;;5.20;2.55;;;;;;;20.44;65.48;102491.59;5047043;28;20098;-45
2021/07/17 06:26:29;;;;;;;9.65;3.53;;;;;;;20.50;65.54;102484.50;5047822;28;20084;-46
2021/07/17 06:28:56;;;;;;;7.78;3.65;;;;;;;20.55;65.38;102487.00;5048592;28;20414;-48
2021/07/17 06:31:23;;;;;;;8.40;3.67;;;;;;;20.60;65.04;102489.53;5049646;28;20446;-43
2021/07/17 06:33:50;;;;;;;6.13;3.35;;;;;;;20.67;65.08;102489.69;5048183;28;20041;-46
2021/07/17 06:36:18;;;;;;;5.03;2.70;;;;;;;20.71;65.09;102496.19;5049750;28;20049;-46
2021/07/17 06:38:45;;;;;;;7.22;3.35;;;;;;;20.77;65.21;102493.88;5051419;28;20131;-42
2021/07/17 06:41:14;;;;;;;10.00;3.03;;;;;;;20.83;65.24;102498.03;5041934;28;20067;-44
2021/07/17 06:43:41;;;;;;;5.35;3.17;;;;;;;20.85;64.92;102495.66;5051235;28;20049;-43
2021/07/17 06:46:08;;;;;;;6.68;3.70;;;;;;;20.90;64.87;102498.97;5048997;28;20053;-42
2021/07/17 06:48:34;;;;;;;6.78;3.45;;;;;;;20.94;64.70;102497.03;5047133;28;20059;-47
2021/07/17 06:51:02;;;;;;;8.07;3.63;;;;;;;20.98;64.81;102495.09;5050389;28;21229;-48
2021/07/17 06:53:34;;;;;;;4.75;2.92;;;;;;;21.02;64.54;102503.63;5050087;28;20379;-43
2021/07/17 06:56:01;;;;;;;5.88;2.85;;;;;;;21.07;64.40;102511.81;5031964;28;20060;-43
2021/07/17 06:58:28;;;;;;;8.18;3.45;;;;;;;21.12;64.40;102506.69;5050217;28;22622;-44
2021/07/17 07:00:57;;;;;;;9.88;3.50;;;;;;;21.18;64.40;102505.16;5048407;28;20572;-41
2021/07/17 07:03:24;;;;;;;8.02;4.57;;;;;;;21.20;64.08;102508.44;5047847;28;20045;-44
2021/07/17 07:05:51;;;;;;;10.00;3.75;;;;;;;21.25;64.33;102504.47;5047789;28;20044;-55
2021/07/17 07:08:18;;;;;;;5.72;2.60;;;;;;;21.32;64.02;102503.78;5037952;28;20052;-50
2021/07/17 07:10:45;;;;;;;7.38;4.38;;;;;;;21.40;64.17;102509.16;5023376;28;20049;-43
2021/07/17 07:13:16;;;;;;;4.68;3.50;;;;;;;21.48;64.31;102504.47;5045392;28;20502;-42
2021/07/17 07:15:45;;;;;;;7.15;2.78;;;;;;;21.55;63.72;102502.56;5042274;28;20160;-45
2021/07/17 07:18:13;;;;;;;4.95;3.75;;;;;;;21.64;63.49;102503.13;5047338;28;20068;-44
2021/07/17 07:20:41;;;;;;;5.28;2.58;;;;;;;21.72;63.51;102507.69;5026744;28;20053;-47
2021/07/17 07:23:08;;;;;;;4.50;2.70;;;;;;;21.78;63.42;102508.19;5044046;28;20053;-46
2021/07/17 07:25:35;;;;;;;7.63;2.95;;;;;;;21.86;64.02;102501.50;5049142;28;20052;-51
2021/07/17 07:28:02;;;;;;;7.30;2.95;;;;;;;21.97;63.83;102508.09;5045296;28;20568;-46
2021/07/17 07:30:29;;;;;;;7.35;3.28;;;;;;;22.11;63.77;102496.19;5047643;28;20697;-43
2021/07/17 07:32:57;;;;;;;4.43;2.42;;;;;;;22.16;63.78;102505.13;5046399;28;20068;-49
2021/07/17 07:35:25;;;;;;;2.78;2.15;;;;;;;22.23;64.20;102515.72;5046619;28;20765;-43
2021/07/17 07:37:53;;;;;;;4.93;2.58;;;;;;;22.34;64.18;102509.03;5043856;28;20053;-46
2021/07/17 07:40:23;;;;;;;4.40;2.65;;;;;;;22.48;64.22;102507.59;5044223;28;20045;-53
2021/07/17 07:42:50;;;;;;;5.22;2.85;;;;;;;22.63;64.47;102500.94;5045571;28;20509;-44
2021/07/17 07:45:18;;;;;;;9.77;3.42;;;;;;;22.77;64.32;102501.13;5047906;28;20074;-44
2021/07/17 07:47:45;;;;;;;6.53;2.10;;;;;;;22.95;63.79;102504.94;5048330;28;20083;-43
2021/07/17 07:50:12;;;;;;;4.65;2.25;;;;;;;23.16;63.71;102512.81;5044764;28;20063;-43
2021/07/17 07:52:39;;;;;;;3.92;2.33;;;;;;;23.41;63.20;102503.38;5047738;28;20078;-45
2021/07/17 07:55:09;;;;;;;4.85;2.40;;;;;;;23.71;62.57;102511.72;5053003;28;20058;-44
2021/07/17 07:57:36;;;;;;;3.00;1.73;;;;;;;24.01;62.22;102511.53;5044722;28;20391;-43
2021/07/17 08:00:06;;;;;;;3.50;2.00;;;;;;;24.37;61.50;102506.88;5045311;28;20048;-45
2021/07/17 08:02:49;;;;;;;6.47;3.20;;;;;;;24.88;60.80;102509.53;5041680;28;20143;-50
2021/07/17 08:05:16;;;;;;;3.92;1.92;;;;;;;25.44;58.71;102507.56;5044504;28;20059;-48
2021/07/17 08:07:46;;;;;;;5.93;2.83;;;;;;;26.04;56.88;102512.41;5043017;28;20051;-45
2021/07/17 08:10:16;;;;;;;6.68;2.75;;;;;;;26.71;54.55;102515.03;5048738;28;20049;-44
2021/07/17 08:12:43;;;;;;;4.75;2.08;;;;;;;27.35;53.30;102511.81;5043575;28;20084;-44
2021/07/17 08:15:10;;;;;;;6.70;2.55;;;;;;;27.94;51.20;102509.66;5030086;28;20048;-50
2021/07/17 08:17:37;;;;;;;5.50;2.13;;;;;;;28.46;49.02;102507.47;5046475;28;20892;-43
2021/07/17 08:20:09;;;;;;;7.22;2.75;;;;;;;28.91;47.95;102504.00;5045396;28;20049;-44
2021/07/17 08:22:37;;;;;;;5.65;2.28;;;;;;;29.37;46.79;102505.38;5043259;28;20055;-44
2021/07/17 08:25:06;;;;;;;7.72;3.10;;;;;;;29.78;45.25;102507.94;5046789;28;20052;-46
2021/07/17 08:27:34;;;;;;;9.00;2.67;;;;;;;30.02;45.24;102509.53;5041055;28;20064;-47
2021/07/17 08:30:02;;;;;;;6.03;3.08;;;;;;;30.30;44.29;102503.25;5050708;28;20044;-45
2021/07/17 08:32:28;;;;;;;8.20;2.92;;;;;;;30.59;43.38;102506.34;5026823;28;20057;-44
2021/07/17 08:34:56;;;;;;;8.52;3.35;;;;;;;30.85;42.57;102505.34;5048165;28;20493;-47
2021/07/17 08:37:23;;;;;;;6.82;3.35;;;;;;;31.04;42.43;102498.00;5056664;28;20139;-45
2021/07/17 08:39:50;;;;;;;8.68;3.55;;;;;;;31.25;41.35;102506.88;5051685;28;20090;-46
2021/07/17 08:42:18;;;;;;;4.88;2.75;;;;;;;31.44;40.92;102492.91;5049705;28;20075;-44
2021/07/17 08:44:52;;;;;;;5.90;2.83;;;;;;;31.50;40.63;102497.69;5051215;28;20052;-48
2021/07/17 08:47:20;;;;;;;4.93;2.72;;;;;;;31.71;39.70;102494.28;5049668;28;20077;-46
2021/07/17 08:49:47;;;;;;;4.82;2.42;;;;;;;31.77;39.59;102495.31;5030899;28;20048;-44
2021/07/17 08:52:14;;;;;;;5.40;2.00;;;;;;;31.98;39.11;102493.94;5051021;28;20045;-43
2021/07/17 08:54:41;;;;;;;5.05;2.03;;;;;;;32.26;38.41;102487.44;5051497;28;20049;-45
2021/07/17 08:57:12;;;;;;;7.78;2.30;;;;;;;32.37;38.36;102492.84;5054912;28;20053;-46
2021/07/17 08:59:39;;;;;;;7.35;2.53;;;;;;;32.43;38.61;102485.31;5051672;28;20123;-44
2021/07/17 09:02:07;;;;;;;3.28;2.50;;;;;;;32.54;38.41;102477.19;5049564;28;20048;-53
2021/07/17 09:04:36;;;;;;;4.47;2.80;;;;;;;32.69;38.09;102486.19;5052895;28;20060;-45
2021/07/17 09:07:03;;;;;;;6.10;2.60;;;;;;;32.97;36.87;102480.34;5048847;28;20070;-45
2021/07/17 09:09:32;;;;;;;4.35;2.08;;;;;;;33.22;36.17;102488.16;5050858;28;20048;-44
2021/07/17 09:12:00;;;;;;;6.60;2.28;;;;;;;33.35;36.34;102483.22;5051655;28;20056;-43
2021/07/17 09:14:39;;;;;;;5.82;2.22;;;;;;;33.47;35.73;102487.31;5032828;28;20075;-44
2021/07/17 09:17:07;;;;;;;6.38;2.28;;;;;;;33.49;35.72;102484.78;5031260;28;20045;-47
2021/07/17 09:19:34;;;;;;;6.72;2.10;;;;;;;33.57;35.28;102486.19;5029569;28;20156;-47
2021/07/17 09:22:03;;;;;;;3.17;1.92;;;;;;;33.58;35.00;102482.03;5030969;28;20927;-47
2021/07/17 09:24:30;;;;;;;5.32;2.72;;;;;;;33.57;35.30;102474.69;5028697;28;20474;-46
2021/07/17 09:27:02;;;;;;;5.82;2.30;;;;;;;33.57;35.53;102480.44;5027929;28;20046;-44
2021/07/17 09:29:37;;;;;;;5.93;2.28;;;;;;;33.62;34.94;102480.66;5014730;28;20565;-43
2021/07/17 09:32:05;;;;;;;6.85;2.78;;;;;;;33.65;35.59;102473.97;5028246;28;20073;-45
2021/07/17 09:34:33;;;;;;;6.35;2.13;;;;;;;33.65;35.33;102473.19;5026644;28;20049;-49
2021/07/17 09:37:12;;;;;;;5.22;2.67;;;;;;;33.61;34.97;102479.03;5033240;28;20402;-50
2021/07/17 09:39:46;;;;;;;5.82;2.50;;;;;;;33.70;35.39;102472.59;5030845;28;20053;-46
2021/07/17 09:42:16;;;;;;;3.40;2.30;;;;;;;33.94;34.80;102470.09;5028822;28;20139;-47
2021/07/17 09:44:49;;;;;;;4.60;2.13;;;;;;;34.06;34.34;102475.78;5030053;28;20140;-49
2021/07/17 09:47:23;;;;;;;6.95;3.10;;;;;;;34.05;34.39;102474.16;5031672;28;20375;-45
2021/07/17 09:50:09;;;;;;;8.43;2.15;;;;;;;33.94;33.99;102475.84;5030153;28;20148;-47
2021/07/17 09:52:45;;;;;;;4.93;2.35;;;;;;;33.91;34.73;102466.06;5027965;28;20406;-43
2021/07/17 09:55:14;;;;;;;8.63;2.67;;;;;;;34.07;34.09;102471.66;5029030;28;20103;-44
2021/07/17 09:57:41;;;;;;;4.25;1.80;;;;;;;34.22;33.81;102472.72;5030259;28;20057;-44
2021/07/17 10:00:13;;;;;;;4.13;2.30;;;;;;;34.19;34.53;102469.97;5028197;28;20104;-48
2021/07/17 10:02:55;;;;;;;3.85;1.90;;;;;;;34.10;34.11;102469.94;5027622;28;20049;-44
2021/07/17 10:05:43;;;;;;;8.70;3.15;;;;;;;34.09;34.32;102457.63;5030373;28;20146;-43
2021/07/17 10:08:15;;;;;;;6.40;2.95;;;;;;;34.05;34.90;102456.91;5029446;28;20075;-43
2021/07/17 10:10:44;;;;;;;4.75;2.67;;;;;;;34.11;34.60;102457.94;5032560;28;20048;-43
2021/07/17 10:13:11;;;;;;;8.43;4.03;;;;;;;33.89;35.00;102459.19;5038630;28;20495;-48
2021/07/17 10:15:38;;;;;;;9.57;4.28;;;;;;;33.72;35.01;102454.88;5044308;28;20044;-44
2021/07/17 10:18:24;;;;;;;6.18;3.78;;;;;;;33.54;35.89;102452.63;5042894;28;20122;-54
2021/07/17 10:20:55;;;;;;;8.07;3.17;;;;;;;33.42;36.07;102454.25;5045036;28;20131;-44
2021/07/17 10:23:23;;;;;;;8.57;3.10;;;;;;;33.35;35.97;102459.44;5044801;28;21124;-44
2021/07/17 10:25:52;;;;;;;8.82;3.22;;;;;;;32.92;36.34;102440.75;5046430;28;20052;-46
2021/07/17 10:28:19;;;;;;;5.90;3.25;;;;;;;32.82;36.89;102444.75;5046752;28;20165;-46
2021/07/17 10:30:47;;;;;;;7.05;3.08;;;;;;;32.76;36.58;102445.78;5049599;28;20049;-54
2021/07/17 10:33:14;;;;;;;5.88;2.50;;;;;;;32.52;36.92;102448.13;5045479;28;20100;-55
2021/07/17 10:35:44;;;;;;;5.65;3.55;;;;;;;32.42;37.15;102443.53;5048398;28;20048;-43
2021/07/17 10:38:11;;;;;;;3.95;2.47;;;;;;;32.33;37.42;102438.47;5044652;28;20049;-43
2021/07/17 10:40:41;;;;;;;6.35;2.45;;;;;;;32.26;37.77;102446.50;5047670;28;20497;-42
2021/07/17 10:43:09;;;;;;;5.07;2.97;;;;;;;32.16;37.77;102439.81;5042788;28;20076;-46
2021/07/17 10:45:37;;;;;;;4.65;2.40;;;;;;;31.88;38.01;102441.41;5039821;28;20054;-43
2021/07/17 10:48:28;;;;;;;7.65;2.85;;;;;;;31.65;37.94;102441.66;5048984;28;20494;-45
2021/07/17 10:51:21;;;;;;;5.53;2.30;;;;;;;31.46;38.49;102433.97;5046191;28;20061;-44
2021/07/17 10:53:58;;;;;;;6.65;1.95;;;;;;;31.31;38.78;102438.44;5044850;28;20497;-43
2021/07/17 10:56:27;;;;;;;5.53;2.35;;;;;;;31.09;39.26;102428.78;5048262;28;20059;-42
2021/07/17 10:58:55;;;;;;;5.93;1.80;;;;;;;31.04;39.45;102437.91;5041542;28;20060;-45
2021/07/17 11:01:22;;;;;;;2.65;1.75;;;;;;;31.00;39.19;102440.88;5044883;28;20057;-40
2021/07/17 11:03:50;;;;;;;5.72;1.73;;;;;;;30.97;39.85;102432.38;5041745;28;20049;-42
2021/07/17 11:06:33;;;;;;;5.05;1.98;;;;;;;30.85;39.73;102430.16;5048648;28;20076;-43
2021/07/17 11:09:30;;;;;;;7.85;3.03;;;;;;;30.66;39.85;102432.66;5028437;28;20049;-45
2021/07/17 11:12:19;;;;;;;7.03;1.90;;;;;;;30.41;40.57;102428.75;5046970;28;20044;-45
2021/07/17 11:14:47;;;;;;;6.57;2.15;;;;;;;30.33;40.55;102430.13;5016169;28;20084;-47
2021/07/17 11:17:43;;;;;;;10.77;2.78;;;;;;;30.32;40.60;102429.31;5016736;28;20490;-48
2021/07/17 11:20:19;;;;;;;7.30;2.25;;;;;;;30.26;40.50;102436.81;5015733;28;20518;-43
2021/07/17 11:22:58;;;;;;;8.70;1.70;;;;;;;30.22;40.50;102429.53;5019489;28;20136;-45
2021/07/17 11:25:24;;;;;;;4.28;2.03;;;;;;;30.03;40.84;102431.97;5017177;28;20048;-41
2021/07/17 11:27:51;;;;;;;2.38;1.08;;;;;;;29.86;40.72;102429.47;5019304;28;20052;-42
2021/07/17 11:30:19;;;;;;;7.10;1.95;;;;;;;29.68;41.27;102429.78;5020233;28;20065;-42
2021/07/17 11:33:05;;;;;;;5.95;1.58;;;;;;;29.58;41.65;102425.91;5018701;28;20075;-46